createdAt,value
2023-09-01T00:00:04.665Z,17.54
2023-09-01T00:02:33.928Z,17.61
2023-09-01T00:05:02.680Z,17.60
2023-09-01T00:07:30.590Z,17.57
2023-09-01T00:09:58.198Z,17.57
2023-09-01T00:12:26.872Z,17.52
2023-09-01T00:14:54.552Z,17.61
2023-09-01T00:17:22.266Z,17.54
2023-09-01T00:19:50.286Z,17.49
2023-09-01T00:22:17.885Z,17.45
2023-09-01T00:24:45.486Z,17.57
2023-09-01T00:27:13.460Z,17.45
2023-09-01T00:29:41.265Z,17.32
2023-09-01T00:32:09.015Z,17.23
2023-09-01T00:34:37.025Z,17.33
2023-09-01T00:37:04.696Z,17.28
2023-09-01T00:39:32.297Z,17.43
2023-09-01T00:42:00.477Z,17.28
2023-09-01T00:44:28.116Z,17.54
2023-09-01T00:46:55.863Z,17.47
2023-09-01T00:49:23.767Z,17.46
2023-09-01T00:51:51.460Z,17.42
2023-09-01T00:54:20.156Z,17.29
2023-09-01T00:56:49.003Z,17.18
2023-09-01T00:59:16.613Z,16.76
2023-09-01T01:01:44.311Z,16.97
2023-09-01T01:04:13.242Z,16.89
2023-09-01T01:06:43.828Z,17.01
2023-09-01T01:09:29.565Z,17.07
2023-09-01T01:12:05.317Z,17.03
2023-09-01T01:14:37.491Z,16.87
2023-09-01T01:17:06.945Z,16.81
2023-09-01T01:19:54.322Z,16.65
2023-09-01T01:22:42.596Z,16.66
2023-09-01T01:25:12.405Z,16.65
2023-09-01T01:27:42.338Z,16.54
2023-09-01T01:30:11.435Z,16.46
2023-09-01T01:32:39.972Z,16.50
2023-09-01T01:35:10.789Z,16.55
2023-09-01T01:38:23.970Z,16.56
2023-09-01T01:40:54.316Z,16.43
2023-09-01T01:43:24.213Z,16.30
2023-09-01T01:45:52.496Z,16.23
2023-09-01T01:48:20.156Z,16.32
2023-09-01T01:50:48.220Z,16.15
2023-09-01T01:53:16.170Z,15.88
2023-09-01T01:55:43.995Z,15.76
2023-09-01T01:58:11.918Z,15.71
2023-09-01T02:00:40.157Z,15.86
2023-09-01T02:03:08.232Z,15.81
2023-09-01T02:05:35.973Z,15.83
2023-09-01T02:08:04.344Z,15.64
2023-09-01T02:10:32.870Z,15.49
2023-09-01T02:13:01.693Z,15.49
2023-09-01T02:15:29.572Z,15.50
2023-09-01T02:17:57.674Z,15.51
2023-09-01T02:20:26.295Z,15.49
2023-09-01T02:22:55.154Z,15.37
2023-09-01T02:25:22.911Z,15.38
2023-09-01T02:27:50.888Z,15.50
2023-09-01T02:30:18.556Z,15.52
2023-09-01T02:32:46.554Z,15.37
2023-09-01T02:35:14.504Z,15.38
2023-09-01T02:37:42.213Z,15.36
2023-09-01T02:40:10.322Z,15.11
2023-09-01T02:42:41.610Z,15.09
2023-09-01T02:45:10.684Z,15.04
2023-09-01T02:47:39.000Z,15.01
2023-09-01T02:50:07.646Z,15.01
2023-09-01T02:52:35.222Z,15.09
2023-09-01T02:55:03.514Z,14.90
2023-09-01T02:57:31.065Z,14.94
2023-09-01T02:59:58.735Z,15.14
2023-09-01T03:02:26.818Z,15.18
2023-09-01T03:04:54.670Z,15.02
2023-09-01T03:07:22.472Z,15.05
2023-09-01T03:09:50.476Z,14.94
2023-09-01T03:12:18.218Z,14.83
2023-09-01T03:14:47.874Z,14.75
2023-09-01T03:17:16.161Z,14.96
2023-09-01T03:19:43.963Z,14.86
2023-09-01T03:22:11.500Z,14.77
2023-09-01T03:24:39.418Z,14.71
2023-09-01T03:27:07.137Z,14.88
2023-09-01T03:29:34.972Z,14.93
2023-09-01T03:32:02.955Z,14.94
2023-09-01T03:34:30.971Z,14.87
2023-09-01T03:36:58.578Z,14.98
2023-09-01T03:39:26.600Z,14.86
2023-09-01T03:41:54.198Z,14.80
2023-09-01T03:44:22.200Z,14.96
2023-09-01T03:46:50.182Z,14.90
2023-09-01T03:49:18.141Z,14.80
2023-09-01T03:51:45.802Z,14.93
2023-09-01T03:54:14.266Z,14.97
2023-09-01T03:56:41.990Z,14.91
2023-09-01T03:59:09.899Z,14.89
2023-09-01T04:01:37.969Z,14.87
2023-09-01T04:04:06.010Z,14.81
2023-09-01T04:06:33.936Z,14.74
2023-09-01T04:09:01.673Z,14.83
2023-09-01T04:11:29.507Z,14.78
2023-09-01T04:13:57.308Z,14.83
2023-09-01T04:16:25.325Z,14.67
2023-09-01T04:18:56.103Z,14.54
2023-09-01T04:21:24.038Z,14.51
2023-09-01T04:23:52.123Z,14.54
2023-09-01T04:26:20.398Z,14.78
2023-09-01T04:28:48.211Z,14.78
2023-09-01T04:31:29.516Z,14.92
2023-09-01T04:33:59.398Z,14.94
2023-09-01T04:36:41.280Z,15.03
2023-09-01T04:39:14.560Z,15.03
2023-09-01T04:44:27.953Z,15.20
2023-09-01T04:46:55.615Z,15.30
2023-09-01T04:49:23.471Z,15.45
2023-09-01T04:51:51.872Z,15.52
2023-09-01T04:54:20.934Z,15.64
2023-09-01T04:57:08.539Z,15.75
2023-09-01T04:59:36.367Z,16.07
2023-09-01T05:02:04.472Z,16.08
2023-09-01T05:04:32.418Z,16.09
2023-09-01T05:07:00.134Z,16.16
2023-09-01T05:09:29.314Z,16.29
2023-09-01T05:11:58.865Z,16.46
2023-09-01T05:14:27.467Z,16.57
2023-09-01T05:16:55.505Z,16.76
2023-09-01T05:19:23.463Z,16.69
2023-09-01T05:21:51.147Z,16.61
2023-09-01T05:24:19.103Z,16.66
2023-09-01T05:26:46.970Z,16.75
2023-09-01T05:29:14.653Z,16.84
2023-09-01T05:31:42.750Z,16.89
2023-09-01T05:34:10.822Z,16.96
2023-09-01T05:36:38.477Z,16.94
2023-09-01T05:39:06.842Z,17.00
2023-09-01T05:41:34.597Z,17.01
2023-09-01T05:44:02.329Z,17.03
2023-09-01T05:46:30.807Z,17.05
2023-09-01T05:48:58.887Z,17.09
2023-09-01T05:51:26.978Z,17.11
2023-09-01T05:53:54.950Z,17.16
2023-09-01T05:56:22.691Z,17.22
2023-09-01T05:58:52.463Z,17.24
2023-09-01T06:01:20.937Z,17.34
2023-09-01T06:03:48.969Z,17.45
2023-09-01T06:06:16.629Z,17.52
2023-09-01T06:08:46.557Z,17.61
2023-09-01T06:11:14.708Z,17.91
2023-09-01T06:13:42.466Z,18.16
2023-09-01T06:16:10.651Z,18.30
2023-09-01T06:18:38.709Z,18.45
2023-09-01T06:23:34.287Z,18.73
2023-09-01T06:26:02.607Z,18.69
2023-09-01T06:28:30.613Z,18.56
2023-09-01T06:30:58.544Z,18.80
2023-09-01T06:33:26.524Z,19.06
2023-09-01T06:35:54.220Z,19.16
2023-09-01T06:38:21.819Z,19.06
2023-09-01T06:40:49.836Z,19.08
2023-09-01T06:43:17.502Z,18.89
2023-09-01T06:45:45.275Z,19.09
2023-09-01T06:48:13.711Z,19.05
2023-09-01T06:50:41.799Z,18.96
2023-09-01T06:53:09.657Z,19.01
2023-09-01T06:55:37.721Z,19.10
2023-09-01T06:58:05.434Z,19.28
2023-09-01T07:00:33.331Z,19.31
2023-09-01T07:03:01.325Z,19.51
2023-09-01T07:05:28.995Z,19.56
2023-09-01T07:07:56.666Z,19.70
2023-09-01T07:10:24.654Z,19.70
2023-09-01T07:12:52.261Z,19.70
2023-09-01T07:15:20.032Z,20.03
2023-09-01T07:17:47.989Z,19.57
2023-09-01T07:20:15.752Z,19.78
2023-09-01T07:22:43.610Z,19.80
2023-09-01T07:25:11.494Z,20.04
2023-09-01T07:27:39.151Z,20.20
2023-09-01T07:30:07.503Z,20.26
2023-09-01T07:32:35.825Z,20.12
2023-09-01T07:35:03.625Z,19.91
2023-09-01T07:37:31.315Z,20.33
2023-09-01T07:39:59.290Z,20.60
2023-09-01T07:42:26.894Z,20.62
2023-09-01T07:44:54.526Z,20.69
2023-09-01T07:47:22.554Z,20.54
2023-09-01T07:49:50.236Z,20.82
2023-09-01T07:52:17.948Z,21.11
2023-09-01T07:54:45.824Z,21.13
2023-09-01T07:57:13.407Z,21.20
2023-09-01T07:59:41.033Z,21.21
2023-09-01T08:02:09.421Z,21.23
2023-09-01T08:04:37.441Z,21.49
2023-09-01T08:07:05.129Z,21.50
2023-09-01T08:09:35.560Z,21.31
2023-09-01T08:12:03.302Z,21.84
2023-09-01T08:14:30.785Z,21.39
2023-09-01T08:16:58.472Z,21.93
2023-09-01T08:19:26.424Z,22.07
2023-09-01T08:21:54.030Z,22.49
2023-09-01T08:24:21.657Z,22.26
2023-09-01T08:26:49.631Z,22.48
2023-09-01T08:29:17.324Z,22.33
2023-09-01T08:31:44.914Z,22.49
2023-09-01T08:34:12.775Z,22.64
2023-09-01T08:36:40.460Z,22.56
2023-09-01T08:39:08.172Z,22.20
2023-09-01T08:41:36.190Z,22.47
2023-09-01T08:44:06.475Z,22.81
2023-09-01T08:46:34.415Z,22.71
2023-09-01T08:49:03.986Z,22.94
2023-09-01T08:51:32.216Z,23.27
2023-09-01T08:54:00.312Z,23.74
2023-09-01T08:56:28.170Z,23.22
2023-09-01T08:58:55.817Z,23.48
2023-09-01T09:01:23.363Z,23.66
2023-09-01T09:03:51.531Z,23.45
2023-09-01T09:06:40.596Z,23.48
2023-09-01T09:09:11.000Z,23.12
2023-09-01T09:11:39.504Z,23.48
2023-09-01T09:14:10.198Z,23.50
2023-09-01T09:16:51.352Z,23.64
2023-09-01T09:19:19.329Z,23.93
2023-09-01T09:21:47.433Z,23.67
2023-09-01T09:24:22.664Z,23.99
2023-09-01T09:27:00.316Z,23.44
2023-09-01T09:29:27.948Z,23.52
2023-09-01T09:31:58.778Z,23.38
2023-09-01T09:34:26.387Z,24.05
2023-09-01T09:36:54.304Z,24.05
2023-09-01T09:39:29.797Z,23.56
2023-09-01T09:41:57.465Z,23.48
2023-09-01T09:44:35.513Z,23.49
2023-09-01T09:47:05.088Z,24.30
2023-09-01T09:49:33.763Z,24.44
2023-09-01T09:52:01.841Z,24.10
2023-09-01T09:54:30.643Z,23.35
2023-09-01T09:56:59.129Z,23.33
2023-09-01T09:59:56.207Z,23.69
2023-09-01T10:02:32.733Z,23.97
2023-09-01T10:05:01.199Z,23.91
2023-09-01T10:07:29.016Z,23.86
2023-09-01T10:09:56.857Z,23.70
2023-09-01T10:12:25.372Z,23.81
2023-09-01T10:14:54.609Z,24.24
2023-09-01T10:17:23.318Z,24.47
2023-09-01T10:19:51.460Z,24.64
2023-09-01T10:22:19.403Z,24.48
2023-09-01T10:25:07.366Z,24.79
2023-09-01T10:27:35.622Z,25.27
2023-09-01T10:30:26.677Z,25.05
2023-09-01T10:33:07.658Z,25.34
2023-09-01T10:35:40.047Z,25.25
2023-09-01T10:38:12.582Z,25.51
2023-09-01T10:40:53.627Z,25.50
2023-09-01T10:43:36.766Z,25.70
2023-09-01T10:46:13.769Z,25.74
2023-09-01T10:48:48.047Z,25.99
2023-09-01T10:51:26.132Z,26.18
2023-09-01T10:53:55.858Z,26.61
2023-09-01T10:56:24.427Z,26.62
2023-09-01T10:58:53.745Z,26.69
2023-09-01T11:01:28.063Z,26.38
2023-09-01T11:03:56.854Z,26.52
2023-09-01T11:06:24.811Z,26.62
2023-09-01T11:09:01.780Z,26.06
2023-09-01T11:11:29.890Z,26.44
2023-09-01T11:14:01.440Z,25.79
2023-09-01T11:16:29.738Z,25.73
2023-09-01T11:19:02.398Z,26.30
2023-09-01T11:21:31.216Z,26.16
2023-09-01T11:24:00.363Z,25.43
2023-09-01T11:26:29.788Z,26.15
2023-09-01T11:28:58.141Z,26.17
2023-09-01T11:31:38.384Z,25.63
2023-09-01T11:34:06.697Z,25.77
2023-09-01T11:36:35.274Z,25.57
2023-09-01T11:39:03.732Z,26.10
2023-09-01T11:41:31.857Z,26.00
2023-09-01T11:43:59.662Z,26.25
2023-09-01T11:46:35.080Z,26.65
2023-09-01T11:49:04.495Z,26.52
2023-09-01T11:51:37.944Z,26.04
2023-09-01T11:54:06.183Z,26.31
2023-09-01T11:56:34.177Z,26.34
2023-09-01T11:59:02.214Z,26.36
2023-09-01T12:01:36.392Z,26.24
2023-09-01T12:04:08.739Z,26.07
2023-09-01T12:06:40.676Z,26.54
2023-09-01T12:09:12.575Z,26.62
2023-09-01T12:11:55.931Z,27.07
2023-09-01T12:14:24.624Z,27.08
2023-09-01T12:16:52.555Z,27.27
2023-09-01T12:19:25.679Z,27.45
2023-09-01T12:21:55.161Z,27.59
2023-09-01T12:24:22.774Z,27.90
2023-09-01T12:26:51.171Z,27.59
2023-09-01T12:29:19.905Z,27.75
2023-09-01T12:31:48.210Z,28.04
2023-09-01T12:34:15.874Z,27.61
2023-09-01T12:36:43.877Z,27.83
2023-09-01T12:39:11.644Z,28.02
2023-09-01T12:41:39.323Z,28.18
2023-09-01T12:44:07.293Z,28.15
2023-09-01T12:46:35.129Z,27.08
2023-09-01T12:49:02.783Z,27.89
2023-09-01T12:51:30.875Z,27.74
2023-09-01T12:53:58.768Z,27.00
2023-09-01T12:56:26.335Z,26.77
2023-09-01T12:58:54.285Z,26.80
2023-09-01T13:01:22.005Z,27.16
2023-09-01T13:03:49.798Z,27.78
2023-09-01T13:06:17.881Z,27.36
2023-09-01T13:08:45.653Z,27.34
2023-09-01T13:11:13.290Z,27.34
2023-09-01T13:13:42.176Z,27.63
2023-09-01T13:16:12.408Z,28.00
2023-09-01T13:18:40.474Z,27.21
2023-09-01T13:21:09.107Z,27.34
2023-09-01T13:23:36.811Z,27.53
2023-09-01T13:26:04.593Z,27.46
2023-09-01T13:28:34.438Z,27.29
2023-09-01T13:31:02.198Z,27.73
2023-09-01T13:33:30.254Z,27.15
2023-09-01T13:35:58.437Z,27.17
2023-09-01T13:38:26.505Z,27.36
2023-09-01T13:40:57.551Z,27.32
2023-09-01T13:43:26.872Z,26.42
2023-09-01T13:46:22.569Z,26.34
2023-09-01T13:48:57.172Z,26.77
2023-09-01T13:51:29.596Z,27.04
2023-09-01T13:53:57.932Z,26.80
2023-09-01T13:56:25.622Z,27.27
2023-09-01T13:58:53.314Z,27.53
2023-09-01T14:01:21.383Z,27.61
2023-09-01T14:03:49.369Z,27.53
2023-09-01T14:06:17.189Z,27.66
2023-09-01T14:08:44.913Z,27.72
2023-09-01T14:11:12.899Z,27.49
2023-09-01T14:13:40.576Z,27.72
2023-09-01T14:16:10.308Z,27.65
2023-09-01T14:18:39.926Z,27.48
2023-09-01T14:21:07.768Z,27.79
2023-09-01T14:23:35.478Z,27.75
2023-09-01T14:26:03.442Z,27.41
2023-09-01T14:28:35.150Z,27.85
2023-09-01T14:31:03.199Z,27.85
2023-09-01T14:33:45.747Z,27.45
2023-09-01T14:36:16.544Z,27.40
2023-09-01T14:38:44.513Z,26.70
2023-09-01T14:41:19.504Z,26.78
2023-09-01T14:43:48.132Z,26.60
2023-09-01T14:46:15.802Z,26.65
2023-09-01T14:48:43.600Z,26.50
2023-09-01T14:51:13.776Z,26.95
2023-09-01T14:53:46.288Z,26.34
2023-09-01T14:56:16.402Z,26.27
2023-09-01T14:58:44.427Z,26.02
2023-09-01T15:01:11.983Z,26.13
2023-09-01T15:03:40.332Z,26.50
2023-09-01T15:06:08.433Z,26.60
2023-09-01T15:08:36.075Z,26.01
2023-09-01T15:11:04.251Z,25.99
2023-09-01T15:13:31.933Z,25.89
2023-09-01T15:15:59.678Z,26.44
2023-09-01T15:18:27.661Z,26.67
2023-09-01T15:21:09.411Z,26.50
2023-09-01T15:23:38.069Z,26.27
2023-09-01T15:26:06.173Z,26.22
2023-09-01T15:28:33.836Z,26.55
2023-09-01T15:31:06.309Z,26.38
2023-09-01T15:33:34.215Z,26.43
2023-09-01T15:36:02.367Z,26.37
2023-09-01T15:38:30.816Z,26.39
2023-09-01T15:41:00.279Z,26.21
2023-09-01T15:43:29.065Z,25.76
2023-09-01T15:45:57.028Z,25.68
2023-09-01T15:48:25.362Z,25.84
2023-09-01T15:50:57.863Z,25.88
2023-09-01T15:53:26.270Z,25.75
2023-09-01T15:55:56.283Z,25.69
2023-09-01T15:58:24.408Z,25.63
2023-09-01T16:01:03.724Z,25.68
2023-09-01T16:03:46.827Z,25.84
2023-09-01T16:06:17.326Z,25.43
2023-09-01T16:08:45.409Z,25.48
2023-09-01T16:11:13.447Z,25.51
2023-09-01T16:13:41.126Z,25.70
2023-09-01T16:16:12.791Z,25.52
2023-09-01T16:18:40.634Z,25.56
2023-09-01T16:21:08.411Z,25.64
2023-09-01T16:23:36.880Z,25.71
2023-09-01T16:26:04.566Z,25.38
2023-09-01T16:28:32.172Z,25.50
2023-09-01T16:31:00.158Z,25.23
2023-09-01T16:33:27.964Z,25.30
2023-09-01T16:35:57.537Z,25.15
2023-09-01T16:38:26.073Z,25.21
2023-09-01T16:40:54.026Z,25.29
2023-09-01T16:43:22.513Z,25.15
2023-09-01T16:45:52.630Z,25.04
2023-09-01T16:48:20.702Z,24.89
2023-09-01T16:50:49.120Z,24.92
2023-09-01T16:53:17.276Z,24.69
2023-09-01T16:55:46.168Z,24.67
2023-09-01T16:58:15.029Z,24.78
2023-09-01T17:00:43.852Z,24.64
2023-09-01T17:03:11.801Z,24.69
2023-09-01T17:05:39.539Z,24.56
2023-09-01T17:08:07.630Z,24.40
2023-09-01T17:10:35.312Z,24.43
2023-09-01T17:13:03.212Z,24.44
2023-09-01T17:15:32.013Z,24.25
2023-09-01T17:17:59.746Z,24.04
2023-09-01T17:20:27.906Z,23.98
2023-09-01T17:23:00.738Z,23.82
2023-09-01T17:25:28.797Z,23.74
2023-09-01T17:27:56.873Z,23.67
2023-09-01T17:30:24.525Z,23.59
2023-09-01T17:32:52.206Z,23.49
2023-09-01T17:35:22.342Z,23.34
2023-09-01T17:37:49.990Z,23.30
2023-09-01T17:40:17.955Z,23.16
2023-09-01T17:42:45.877Z,23.15
2023-09-01T17:45:13.551Z,23.11
2023-09-01T17:47:41.307Z,22.98
2023-09-01T17:50:10.225Z,22.94
2023-09-01T17:52:38.482Z,22.77
2023-09-01T17:55:06.494Z,22.66
2023-09-01T17:57:34.581Z,22.54
2023-09-01T18:00:02.243Z,22.62
2023-09-01T18:02:36.879Z,22.40
2023-09-01T18:05:07.354Z,22.31
2023-09-01T18:07:35.256Z,22.13
2023-09-01T18:10:03.796Z,22.09
2023-09-01T18:12:33.163Z,22.06
2023-09-01T18:15:00.931Z,21.97
2023-09-01T18:17:28.650Z,21.87
2023-09-01T18:19:56.630Z,21.81
2023-09-01T18:22:24.283Z,21.75
2023-09-01T18:24:52.070Z,21.69
2023-09-01T18:27:26.753Z,21.63
2023-09-01T18:29:54.744Z,21.55
2023-09-01T18:32:26.845Z,21.60
2023-09-01T18:34:54.867Z,21.52
2023-09-01T18:37:22.893Z,21.53
2023-09-01T18:39:50.876Z,21.44
2023-09-01T18:42:39.031Z,21.37
2023-09-01T18:45:08.884Z,21.35
2023-09-01T18:47:40.195Z,21.23
2023-09-01T18:50:11.335Z,21.18
2023-09-01T18:52:40.194Z,21.12
2023-09-01T18:55:09.341Z,21.00
2023-09-01T18:57:37.729Z,20.97
2023-09-01T19:00:07.384Z,20.86
2023-09-01T19:02:37.821Z,20.76
2023-09-01T19:05:33.917Z,20.71
2023-09-01T19:08:16.721Z,20.76
2023-09-01T19:10:46.142Z,20.67
2023-09-01T19:13:14.947Z,20.58
2023-09-01T19:15:43.280Z,20.44
2023-09-01T19:18:12.522Z,20.47
2023-09-01T19:20:43.835Z,20.39
2023-09-01T19:23:32.802Z,20.40
2023-09-01T19:26:02.856Z,20.39
2023-09-01T19:28:37.822Z,20.13
2023-09-01T19:31:08.015Z,20.18
2023-09-01T19:33:37.223Z,20.15
2023-09-01T19:36:05.144Z,20.20
2023-09-01T19:38:33.124Z,20.04
2023-09-01T19:41:01.048Z,20.05
2023-09-01T19:43:28.747Z,20.01
2023-09-01T19:45:56.938Z,20.09
2023-09-01T19:48:25.985Z,19.83
2023-09-01T19:50:53.593Z,19.86
2023-09-01T19:53:25.447Z,19.83
2023-09-01T19:55:56.924Z,19.90
2023-09-01T19:58:28.590Z,19.71
2023-09-01T20:00:56.953Z,19.74
2023-09-01T20:03:25.643Z,19.68
2023-09-01T20:05:53.404Z,19.74
2023-09-01T20:08:21.212Z,19.57
2023-09-01T20:10:49.632Z,19.65
2023-09-01T20:13:17.681Z,19.46
2023-09-01T20:15:48.101Z,19.37
2023-09-01T20:18:17.878Z,19.28
2023-09-01T20:20:46.702Z,19.35
2023-09-01T20:23:14.774Z,19.57
2023-09-01T20:25:43.507Z,19.59
2023-09-01T20:28:11.654Z,19.39
2023-09-01T20:30:39.920Z,19.22
2023-09-01T20:33:08.196Z,19.41
2023-09-01T20:35:36.012Z,19.23
2023-09-01T20:38:03.978Z,19.13
2023-09-01T20:40:31.936Z,19.08
2023-09-01T20:42:59.706Z,18.95
2023-09-01T20:45:27.673Z,18.96
2023-09-01T20:47:55.602Z,19.11
2023-09-01T20:50:23.237Z,19.06
2023-09-01T20:52:50.863Z,18.97
2023-09-01T20:55:18.784Z,18.85
2023-09-01T20:57:48.108Z,18.81
2023-09-01T21:00:17.647Z,18.73
2023-09-01T21:02:47.276Z,18.69
2023-09-01T21:05:18.061Z,18.64
2023-09-01T21:07:48.448Z,18.62
2023-09-01T21:10:16.510Z,18.63
2023-09-01T21:12:44.229Z,18.70
2023-09-01T21:15:12.219Z,18.57
2023-09-01T21:17:40.312Z,18.63
2023-09-01T21:20:08.728Z,18.79
2023-09-01T21:22:36.707Z,18.64
2023-09-01T21:25:04.651Z,18.44
2023-09-01T21:27:32.244Z,18.51
2023-09-01T21:30:13.760Z,18.48
2023-09-01T21:32:41.684Z,18.55
2023-09-01T21:35:12.799Z,18.39
2023-09-01T21:37:40.542Z,18.36
2023-09-01T21:40:09.275Z,18.37
2023-09-01T21:42:38.544Z,18.26
2023-09-01T21:45:06.729Z,18.23
2023-09-01T21:47:34.566Z,18.19
2023-09-01T21:50:02.816Z,18.13
2023-09-01T21:52:30.722Z,18.16
2023-09-01T21:54:58.523Z,18.13
2023-09-01T21:57:26.417Z,18.09
2023-09-01T21:59:54.246Z,18.10
2023-09-01T22:02:22.013Z,18.15
2023-09-01T22:04:52.383Z,18.31
2023-09-01T22:07:20.646Z,18.06
2023-09-01T22:09:48.304Z,18.04
2023-09-01T22:12:16.278Z,17.94
2023-09-01T22:14:43.935Z,17.95
2023-09-01T22:17:11.821Z,17.90
2023-09-01T22:19:39.812Z,18.00
2023-09-01T22:22:07.403Z,17.98
2023-09-01T22:24:35.102Z,18.05
2023-09-01T22:27:03.302Z,17.87
2023-09-01T22:29:31.277Z,18.03
2023-09-01T22:31:59.402Z,18.12
2023-09-01T22:34:27.368Z,17.93
2023-09-01T22:36:55.079Z,17.84
2023-09-01T22:39:22.703Z,17.85
2023-09-01T22:41:50.780Z,17.73
2023-09-01T22:44:18.562Z,17.70
2023-09-01T22:46:46.221Z,17.66
2023-09-01T22:49:14.144Z,17.68
2023-09-01T22:51:41.771Z,17.68
2023-09-01T22:54:09.669Z,17.70
2023-09-01T22:56:37.732Z,17.69
2023-09-01T22:59:05.495Z,17.70
2023-09-01T23:01:33.139Z,17.55
2023-09-01T23:04:01.183Z,17.50
2023-09-01T23:06:28.827Z,17.44
2023-09-01T23:08:56.422Z,17.44
2023-09-01T23:11:24.237Z,17.54
2023-09-01T23:13:51.873Z,17.52
2023-09-01T23:16:19.565Z,17.60
2023-09-01T23:18:47.723Z,17.50
2023-09-01T23:21:15.910Z,17.41
2023-09-01T23:23:43.521Z,17.62
2023-09-01T23:26:11.722Z,17.56
2023-09-01T23:28:39.361Z,17.45
2023-09-01T23:31:07.065Z,17.49
2023-09-01T23:33:35.062Z,17.46
2023-09-01T23:36:02.702Z,17.44
2023-09-01T23:38:30.292Z,17.37
2023-09-01T23:40:58.269Z,17.37
2023-09-01T23:43:25.813Z,17.44
2023-09-01T23:45:53.498Z,17.45
2023-09-01T23:48:21.459Z,17.43
2023-09-01T23:50:49.166Z,17.59
2023-09-01T23:53:17.045Z,17.47
2023-09-01T23:55:45.356Z,17.30
2023-09-01T23:58:12.953Z,17.23
